createdAt,value
2023-04-22T00:00:07.912Z,73.13
2023-04-22T00:01:07.890Z,73.74
2023-04-22T00:02:08.060Z,73.77
2023-04-22T00:03:07.947Z,74.18
2023-04-22T00:04:08.260Z,74.29
2023-04-22T00:05:07.948Z,74.59
2023-04-22T00:06:07.843Z,74.73
2023-04-22T00:07:07.825Z,74.49
2023-04-22T00:08:07.841Z,74.38
2023-04-22T00:09:07.775Z,73.77
2023-04-22T00:10:07.820Z,73.74
2023-04-22T00:11:07.753Z,73.33
2023-04-22T00:12:07.784Z,72.92
2023-04-22T00:13:07.796Z,72.69
2023-04-22T00:14:07.770Z,72.58
2023-04-22T00:15:07.686Z,72.58
2023-04-22T00:16:07.829Z,72.58
2023-04-22T00:17:07.699Z,72.34
2023-04-22T00:18:07.708Z,72.34
2023-04-22T00:19:07.682Z,72.65
2023-04-22T00:20:07.805Z,72.55
2023-04-22T00:21:07.647Z,72.86
2023-04-22T00:22:07.651Z,72.65
2023-04-22T00:23:07.624Z,72.55
2023-04-22T00:24:07.663Z,72.65
2023-04-22T00:25:07.589Z,72.24
2023-04-22T00:26:07.621Z,72.34
2023-04-22T00:27:07.560Z,72.55
2023-04-22T00:28:07.539Z,72.34
2023-04-22T00:29:07.499Z,72.14
2023-04-22T00:30:07.539Z,72.34
2023-04-22T00:31:07.543Z,72.65
2023-04-22T00:32:07.500Z,72.45
2023-04-22T00:33:07.538Z,72.45
2023-04-22T00:34:07.465Z,72.89
2023-04-22T00:35:07.462Z,72.34
2023-04-22T00:36:07.444Z,72.48
2023-04-22T00:37:07.453Z,72.08
2023-04-22T00:38:07.496Z,72.69
2023-04-22T00:39:07.422Z,72.69
2023-04-22T00:40:07.362Z,72.58
2023-04-22T00:41:07.374Z,72.69
2023-04-22T00:42:07.373Z,72.79
2023-04-22T00:43:07.341Z,72.58
2023-04-22T00:44:07.354Z,72.79
2023-04-22T00:45:07.343Z,72.99
2023-04-22T00:46:07.272Z,72.92
2023-04-22T00:47:07.428Z,73.13
2023-04-22T00:48:07.325Z,73.33
2023-04-22T00:49:07.299Z,73.33
2023-04-22T00:50:07.252Z,73.43
2023-04-22T00:51:07.280Z,73.74
2023-04-22T00:52:07.197Z,73.64
2023-04-22T00:53:07.215Z,73.33
2023-04-22T00:54:07.211Z,73.67
2023-04-22T00:55:07.244Z,73.88
2023-04-22T00:56:07.279Z,73.77
2023-04-22T00:57:07.188Z,73.98
2023-04-22T00:58:07.111Z,74.08
2023-04-22T00:59:07.163Z,74.38
2023-04-22T01:00:07.091Z,74.29
2023-04-22T01:01:07.161Z,73.98
2023-04-22T01:02:07.313Z,74.29
2023-04-22T01:03:07.369Z,74.38
2023-04-22T01:04:07.219Z,74.42
2023-04-22T01:05:07.063Z,74.73
2023-04-22T01:06:07.050Z,74.83
2023-04-22T01:07:07.026Z,75.13
2023-04-22T01:08:07.044Z,75.13
2023-04-22T01:09:07.032Z,75.54
2023-04-22T01:10:06.968Z,75.48
2023-04-22T01:11:07.030Z,75.37
2023-04-22T01:12:06.939Z,75.58
2023-04-22T01:13:06.995Z,75.68
2023-04-22T01:14:06.974Z,75.78
2023-04-22T01:15:06.977Z,75.58
2023-04-22T01:16:06.957Z,75.34
2023-04-22T01:17:07.063Z,75.65
2023-04-22T01:18:06.882Z,75.78
2023-04-22T01:19:06.952Z,75.89
2023-04-22T01:20:07.042Z,76.09
2023-04-22T01:21:06.874Z,76.09
2023-04-22T01:22:06.811Z,75.99
2023-04-22T01:23:06.852Z,75.99
2023-04-22T01:24:06.780Z,76.09
2023-04-22T01:25:06.797Z,76.09
2023-04-22T01:26:06.899Z,76.19
2023-04-22T01:27:06.765Z,76.29
2023-04-22T01:28:06.765Z,76.19
2023-04-22T01:29:06.772Z,76.29
2023-04-22T01:30:06.713Z,76.29
2023-04-22T01:31:06.747Z,76.19
2023-04-22T01:32:06.946Z,76.29
2023-04-22T01:33:06.698Z,76.29
2023-04-22T01:34:06.671Z,76.40
2023-04-22T01:35:06.667Z,76.50
2023-04-22T01:36:06.640Z,76.74
2023-04-22T01:37:06.686Z,76.94
2023-04-22T01:38:06.616Z,77.15
2023-04-22T01:39:06.627Z,77.25
2023-04-22T01:40:06.562Z,77.45
2023-04-22T01:41:06.590Z,77.45
2023-04-22T01:42:06.564Z,77.80
2023-04-22T01:43:06.569Z,78.00
2023-04-22T01:44:06.571Z,78.00
2023-04-22T01:45:06.547Z,78.20
2023-04-22T01:46:06.510Z,78.20
2023-04-22T01:47:06.532Z,78.41
2023-04-22T01:48:06.473Z,78.41
2023-04-22T01:49:06.467Z,78.41
2023-04-22T01:50:06.585Z,78.61
2023-04-22T01:51:06.474Z,78.61
2023-04-22T01:52:06.403Z,78.52
2023-04-22T01:53:06.417Z,78.61
2023-04-22T01:54:06.411Z,78.96
2023-04-22T01:55:06.396Z,79.06
2023-04-22T01:56:06.406Z,79.06
2023-04-22T01:57:06.389Z,79.37
2023-04-22T01:58:06.332Z,79.47
2023-04-22T01:59:06.368Z,79.47
2023-04-22T02:00:06.313Z,79.37
2023-04-22T02:01:06.358Z,79.57
2023-04-22T02:02:06.454Z,79.88
2023-04-22T02:03:06.401Z,80.12
2023-04-22T02:04:06.270Z,80.12
2023-04-22T02:05:06.404Z,80.08
2023-04-22T02:06:06.223Z,80.19
2023-04-22T02:07:06.236Z,79.98
2023-04-22T02:08:06.267Z,79.98
2023-04-22T02:09:06.237Z,80.08
2023-04-22T02:10:06.172Z,79.88
2023-04-22T02:11:06.213Z,79.88
2023-04-22T02:12:06.136Z,79.98
2023-04-22T02:13:06.147Z,79.98
2023-04-22T02:14:06.174Z,80.12
2023-04-22T02:15:06.120Z,80.33
2023-04-22T02:16:06.189Z,80.33
2023-04-22T02:17:06.135Z,80.43
2023-04-22T02:18:06.062Z,80.43
2023-04-22T02:19:06.092Z,80.53
2023-04-22T02:20:06.136Z,80.63
2023-04-22T02:21:06.057Z,80.74
2023-04-22T02:22:06.029Z,80.83
2023-04-22T02:23:06.042Z,80.94
2023-04-22T02:24:05.989Z,81.18
2023-04-22T02:25:05.990Z,81.29
2023-04-22T02:26:06.006Z,81.49
2023-04-22T02:27:05.959Z,81.70
2023-04-22T02:28:05.959Z,81.79
2023-04-22T02:29:05.954Z,81.79
2023-04-22T02:30:05.895Z,82.00
2023-04-22T02:31:05.974Z,82.00
2023-04-22T02:32:05.907Z,82.00
2023-04-22T02:33:05.960Z,81.90
2023-04-22T02:34:05.864Z,82.00
2023-04-22T02:35:05.856Z,81.90
2023-04-22T02:36:05.841Z,81.90
2023-04-22T02:37:05.855Z,82.10
2023-04-22T02:38:05.845Z,82.24
2023-04-22T02:39:05.832Z,82.55
2023-04-22T02:40:05.760Z,82.55
2023-04-22T02:41:05.782Z,82.55
2023-04-22T02:42:05.758Z,82.55
2023-04-22T02:43:05.749Z,82.65
2023-04-22T02:44:05.861Z,82.55
2023-04-22T02:45:05.748Z,82.65
2023-04-22T02:46:05.726Z,82.76
2023-04-22T02:47:05.750Z,82.86
2023-04-22T02:48:05.689Z,83.06
2023-04-22T02:49:05.674Z,83.37
2023-04-22T02:50:05.804Z,83.37
2023-04-22T02:51:05.651Z,83.61
2023-04-22T02:52:05.639Z,83.72
2023-04-22T02:53:05.643Z,83.82
2023-04-22T02:54:05.575Z,83.92
2023-04-22T02:55:05.590Z,84.03
2023-04-22T02:56:05.747Z,84.12
2023-04-22T02:57:05.583Z,84.23
2023-04-22T02:58:05.529Z,84.12
2023-04-22T02:59:05.552Z,84.12
2023-04-22T03:00:05.505Z,84.27
2023-04-22T03:01:05.553Z,84.58
2023-04-22T03:02:07.037Z,84.68
2023-04-22T03:03:05.568Z,84.78
2023-04-22T03:04:05.569Z,84.88
2023-04-22T03:05:05.477Z,84.99
2023-04-22T03:06:05.415Z,84.88
2023-04-22T03:07:05.450Z,84.88
2023-04-22T03:08:05.419Z,84.88
2023-04-22T03:09:05.406Z,84.78
2023-04-22T03:10:05.386Z,84.58
2023-04-22T03:11:05.410Z,84.58
2023-04-22T03:12:05.334Z,84.58
2023-04-22T03:13:05.367Z,84.58
2023-04-22T03:14:05.454Z,84.58
2023-04-22T03:15:05.327Z,84.68
2023-04-22T03:16:05.316Z,84.78
2023-04-22T03:17:05.323Z,84.88
2023-04-22T03:18:05.331Z,84.99
2023-04-22T03:19:05.290Z,85.09
2023-04-22T03:20:05.272Z,85.19
2023-04-22T03:21:05.247Z,85.19
2023-04-22T03:22:05.240Z,85.19
2023-04-22T03:23:05.211Z,85.30
2023-04-22T03:24:05.197Z,85.39
2023-04-22T03:25:05.207Z,85.39
2023-04-22T03:26:05.274Z,85.50
2023-04-22T03:27:05.157Z,85.64
2023-04-22T03:28:05.153Z,85.74
2023-04-22T03:29:05.159Z,85.85
2023-04-22T03:30:05.091Z,85.95
2023-04-22T03:31:05.142Z,86.05
2023-04-22T03:32:05.157Z,86.05
2023-04-22T03:33:05.090Z,86.15
2023-04-22T03:34:05.067Z,86.15
2023-04-22T03:35:05.050Z,86.15
2023-04-22T03:36:05.057Z,86.15
2023-04-22T03:37:05.064Z,86.15
2023-04-22T03:38:05.032Z,86.15
2023-04-22T03:39:05.028Z,86.25
2023-04-22T03:40:04.956Z,86.36
2023-04-22T03:41:04.981Z,86.36
2023-04-22T03:42:04.955Z,86.46
2023-04-22T03:43:04.956Z,86.46
2023-04-22T03:44:05.090Z,86.36
2023-04-22T03:45:04.945Z,86.46
2023-04-22T03:46:04.930Z,86.46
2023-04-22T03:47:04.919Z,86.46
2023-04-22T03:48:04.925Z,86.57
2023-04-22T03:49:04.865Z,86.57
2023-04-22T03:50:04.963Z,86.66
2023-04-22T03:51:04.852Z,86.66
2023-04-22T03:52:04.838Z,86.77
2023-04-22T03:53:04.837Z,86.77
2023-04-22T03:54:04.792Z,86.66
2023-04-22T03:55:04.811Z,86.66
2023-04-22T03:56:04.777Z,86.66
2023-04-22T03:57:04.763Z,86.57
2023-04-22T03:58:04.744Z,86.66
2023-04-22T03:59:04.754Z,86.42
2023-04-22T04:00:04.686Z,86.52
2023-04-22T04:01:04.707Z,86.52
2023-04-22T04:02:04.811Z,86.42
2023-04-22T04:03:04.927Z,86.52
2023-04-22T04:04:04.890Z,86.42
2023-04-22T04:05:04.973Z,86.42
2023-04-22T04:06:04.827Z,86.52
2023-04-22T04:07:04.646Z,86.42
2023-04-22T04:08:04.618Z,86.52
2023-04-22T04:09:04.608Z,86.52
2023-04-22T04:10:04.582Z,86.52
2023-04-22T04:11:04.581Z,86.52
2023-04-22T04:12:04.558Z,86.63
2023-04-22T04:13:04.590Z,86.83
2023-04-22T04:14:04.589Z,86.73
2023-04-22T04:15:04.519Z,86.63
2023-04-22T04:16:04.548Z,86.73
2023-04-22T04:17:04.516Z,86.52
2023-04-22T04:18:04.565Z,86.73
2023-04-22T04:19:04.516Z,86.63
2023-04-22T04:20:04.551Z,86.63
2023-04-22T04:21:04.442Z,86.63
2023-04-22T04:22:04.425Z,86.83
2023-04-22T04:23:04.404Z,86.83
2023-04-22T04:24:04.427Z,86.83
2023-04-22T04:25:04.406Z,87.04
2023-04-22T04:26:04.378Z,87.04
2023-04-22T04:27:04.401Z,87.04
2023-04-22T04:28:04.314Z,87.14
2023-04-22T04:29:04.330Z,87.24
2023-04-22T04:30:04.314Z,87.24
2023-04-22T04:31:04.378Z,87.24
2023-04-22T04:32:04.378Z,87.14
2023-04-22T04:33:04.459Z,87.24
2023-04-22T04:34:04.268Z,87.45
2023-04-22T04:35:04.247Z,87.14
2023-04-22T04:36:04.225Z,87.34
2023-04-22T04:37:04.288Z,87.34
2023-04-22T04:38:04.292Z,87.34
2023-04-22T04:39:04.212Z,87.24
2023-04-22T04:40:04.148Z,87.34
2023-04-22T04:41:04.175Z,87.34
2023-04-22T04:42:04.144Z,87.34
2023-04-22T04:43:04.142Z,87.65
2023-04-22T04:44:04.153Z,87.55
2023-04-22T04:45:04.136Z,87.65
2023-04-22T04:46:04.101Z,87.65
2023-04-22T04:47:04.268Z,87.76
2023-04-22T04:48:04.129Z,87.85
2023-04-22T04:49:04.052Z,87.45
2023-04-22T04:50:04.079Z,87.55
2023-04-22T04:51:04.026Z,87.82
2023-04-22T04:52:04.015Z,88.02
2023-04-22T04:53:04.056Z,87.92
2023-04-22T04:54:04.017Z,88.12
2023-04-22T04:55:03.948Z,88.33
2023-04-22T04:56:04.117Z,88.12
2023-04-22T04:57:03.949Z,87.92
2023-04-22T04:58:03.931Z,87.61
2023-04-22T04:59:03.924Z,87.41
2023-04-22T05:00:03.912Z,87.30
2023-04-22T05:01:03.872Z,87.06
2023-04-22T05:02:04.031Z,86.85
2023-04-22T05:03:04.011Z,87.06
2023-04-22T05:04:04.154Z,87.26
2023-04-22T05:05:03.910Z,87.26
2023-04-22T05:06:03.851Z,86.75
2023-04-22T05:07:03.798Z,86.75
2023-04-22T05:08:03.958Z,86.81
2023-04-22T05:09:03.793Z,87.12
2023-04-22T05:10:03.777Z,87.32
2023-04-22T05:11:03.769Z,87.32
2023-04-22T05:12:03.765Z,87.32
2023-04-22T05:13:04.458Z,87.43
2023-04-22T05:14:03.784Z,87.32
2023-04-22T05:15:03.696Z,87.49
2023-04-22T05:16:03.776Z,87.38
2023-04-22T05:17:03.679Z,86.98
2023-04-22T05:18:03.748Z,86.77
2023-04-22T05:19:03.643Z,86.77
2023-04-22T05:20:03.791Z,86.98
2023-04-22T05:21:03.638Z,86.77
2023-04-22T05:22:03.630Z,86.94
2023-04-22T05:23:03.617Z,86.73
2023-04-22T05:24:03.584Z,86.12
2023-04-22T05:25:03.547Z,86.73
2023-04-22T05:26:03.644Z,87.24
2023-04-22T05:27:03.523Z,86.49
2023-04-22T05:28:03.561Z,86.69
2023-04-22T05:29:03.527Z,85.97
2023-04-22T05:30:03.515Z,85.67
2023-04-22T05:31:03.502Z,85.26
2023-04-22T05:32:03.545Z,85.16
2023-04-22T05:33:03.529Z,85.53
2023-04-22T05:34:03.496Z,85.32
2023-04-22T05:35:03.451Z,85.22
2023-04-22T05:36:03.432Z,85.53
2023-04-22T05:37:03.386Z,84.41
2023-04-22T05:38:03.463Z,85.12
2023-04-22T05:39:03.352Z,85.22
2023-04-22T05:40:03.399Z,86.04
2023-04-22T05:41:03.391Z,86.35
2023-04-22T05:42:03.355Z,86.44
2023-04-22T05:43:03.327Z,85.94
2023-04-22T05:44:03.440Z,85.94
2023-04-22T05:45:03.308Z,85.73
2023-04-22T05:46:03.370Z,85.73
2023-04-22T05:47:03.264Z,85.94
2023-04-22T05:48:03.312Z,85.83
2023-04-22T05:49:03.258Z,86.04
2023-04-22T05:50:03.276Z,85.22
2023-04-22T05:51:03.229Z,84.71
2023-04-22T05:52:03.218Z,84.91
2023-04-22T05:53:03.176Z,84.57
2023-04-22T05:54:03.198Z,84.77
2023-04-22T05:55:03.145Z,85.28
2023-04-22T05:56:03.297Z,85.08
2023-04-22T05:57:03.148Z,85.08
2023-04-22T05:58:03.130Z,85.18
2023-04-22T05:59:03.124Z,84.47
2023-04-22T06:00:03.109Z,84.77
2023-04-22T06:01:03.064Z,84.33
2023-04-22T06:02:03.209Z,83.92
2023-04-22T06:03:03.245Z,84.74
2023-04-22T06:04:03.387Z,84.49
2023-04-22T06:05:03.202Z,83.78
2023-04-22T06:06:03.075Z,82.75
2023-04-22T06:07:02.980Z,82.00
2023-04-22T06:08:03.149Z,82.51
2023-04-22T06:09:02.980Z,82.88
2023-04-22T06:11:03.990Z,81.31
2023-04-22T06:12:02.943Z,81.21
2023-04-22T06:13:02.912Z,81.21
2023-04-22T06:14:02.989Z,80.19
2023-04-22T06:15:02.894Z,79.85
2023-04-22T06:16:02.937Z,80.46
2023-04-22T06:17:02.895Z,80.36
2023-04-22T06:18:02.907Z,79.54
2023-04-22T06:19:02.863Z,79.34
2023-04-22T06:20:02.965Z,79.44
2023-04-22T06:21:02.814Z,80.22
2023-04-22T06:22:02.839Z,81.44
2023-04-22T06:23:02.794Z,80.02
2023-04-22T06:24:02.781Z,80.73
2023-04-22T06:25:02.748Z,80.18
2023-04-22T06:26:02.904Z,80.59
2023-04-22T06:27:02.723Z,79.98
2023-04-22T06:28:02.770Z,78.86
2023-04-22T06:29:02.719Z,79.37
2023-04-22T06:30:02.721Z,80.55
2023-04-22T06:31:02.765Z,80.04
2023-04-22T06:32:02.723Z,79.23
2023-04-22T06:33:02.680Z,79.53
2023-04-22T06:34:02.708Z,79.33
2023-04-22T06:35:02.615Z,78.78
2023-04-22T06:36:02.660Z,78.58
2023-04-22T06:37:02.611Z,78.24
2023-04-22T06:38:02.634Z,78.34
2023-04-22T06:39:02.579Z,78.44
2023-04-22T06:40:02.603Z,79.02
2023-04-22T06:41:02.569Z,79.02
2023-04-22T06:42:02.549Z,77.59
2023-04-22T06:43:02.529Z,76.75
2023-04-22T06:44:02.561Z,76.95
2023-04-22T06:45:02.487Z,76.85
2023-04-22T06:46:02.539Z,75.63
2023-04-22T06:47:02.517Z,77.25
2023-04-22T06:48:02.490Z,77.22
2023-04-22T06:49:02.454Z,75.70
2023-04-22T06:50:02.546Z,75.49
2023-04-22T06:51:02.474Z,75.29
2023-04-22T06:52:02.409Z,75.59
2023-04-22T06:53:02.410Z,75.35
2023-04-22T06:54:02.409Z,74.74
2023-04-22T06:55:02.346Z,75.52
2023-04-22T06:56:02.440Z,74.30
2023-04-22T06:57:02.347Z,75.42
2023-04-22T06:58:02.333Z,74.88
2023-04-22T06:59:02.319Z,73.66
2023-04-22T07:00:02.313Z,73.16
2023-04-22T07:01:02.268Z,73.46
2023-04-22T07:02:02.527Z,74.27
2023-04-22T07:03:02.307Z,73.73
2023-04-22T07:04:02.297Z,73.02
2023-04-22T07:05:02.238Z,73.63
2023-04-22T07:06:02.234Z,72.61
2023-04-22T07:07:02.207Z,73.49
2023-04-22T07:08:02.231Z,73.49
2023-04-22T07:09:02.163Z,73.39
2023-04-22T07:10:02.194Z,73.49
2023-04-22T07:11:02.159Z,73.66
2023-04-22T07:12:02.144Z,74.57
2023-04-22T07:13:02.100Z,74.54
2023-04-22T07:14:02.175Z,71.60
2023-04-22T07:15:02.084Z,71.40
2023-04-22T07:16:02.172Z,71.20
2023-04-22T07:17:02.073Z,72.68
2023-04-22T07:18:02.074Z,71.60
2023-04-22T07:19:02.050Z,71.97
2023-04-22T07:20:02.063Z,70.76
2023-04-22T07:21:02.013Z,70.36
2023-04-22T07:22:02.037Z,70.76
2023-04-22T07:23:01.978Z,71.77
2023-04-22T07:24:02.022Z,72.38
2023-04-22T07:25:01.990Z,71.33
2023-04-22T07:26:01.991Z,71.10
2023-04-22T07:27:01.908Z,70.69
2023-04-22T07:28:01.949Z,71.06
2023-04-22T07:29:01.917Z,69.55
2023-04-22T07:30:01.901Z,69.04
2023-04-22T07:31:01.887Z,70.26
2023-04-22T07:32:02.054Z,69.24
2023-04-22T07:33:01.887Z,69.04
2023-04-22T07:34:01.876Z,69.42
2023-04-22T07:35:01.811Z,68.01
2023-04-22T07:36:01.857Z,69.31
2023-04-22T07:37:01.807Z,69.08
2023-04-22T07:38:01.826Z,67.94
2023-04-22T07:39:01.781Z,67.54
2023-04-22T07:40:01.765Z,68.01
2023-04-22T07:41:01.724Z,68.08
2023-04-22T07:42:01.775Z,67.68
2023-04-22T07:43:01.723Z,67.54
2023-04-22T07:44:01.770Z,65.09
2023-04-22T07:45:01.673Z,64.49
2023-04-22T07:46:01.736Z,63.99
2023-04-22T07:47:01.656Z,63.35
2023-04-22T07:48:01.748Z,62.55
2023-04-22T07:49:01.713Z,62.42
2023-04-22T07:50:01.799Z,60.48
2023-04-22T07:51:01.653Z,63.29
2023-04-22T07:52:01.606Z,62.39
2023-04-22T07:53:01.570Z,61.72
2023-04-22T07:54:01.620Z,61.22
2023-04-22T07:55:01.539Z,60.22
2023-04-22T07:56:02.220Z,61.83
2023-04-22T07:57:01.538Z,61.52
2023-04-22T07:58:01.529Z,62.30
2023-04-22T07:59:01.513Z,59.94
2023-04-22T08:00:01.537Z,59.88
2023-04-22T08:01:01.484Z,57.78
2023-04-22T08:02:01.642Z,57.23
2023-04-22T08:03:01.558Z,58.16
2023-04-22T08:04:01.819Z,59.69
2023-04-22T08:05:01.591Z,60.32
2023-04-22T08:06:01.428Z,61.33
2023-04-22T08:07:01.922Z,61.13
2023-04-22T08:08:01.507Z,61.10
2023-04-22T08:09:01.348Z,59.39
2023-04-22T08:10:01.449Z,60.57
2023-04-22T08:11:01.345Z,58.43
2023-04-22T08:12:01.370Z,59.41
2023-04-22T08:13:01.340Z,58.78
2023-04-22T08:14:01.431Z,58.37
2023-04-22T08:15:01.294Z,57.90
2023-04-22T08:16:01.374Z,58.46
2023-04-22T08:17:01.278Z,59.69
2023-04-22T08:18:01.344Z,60.39
2023-04-22T08:19:01.256Z,59.46
2023-04-22T08:20:01.353Z,58.56
2023-04-22T08:21:01.196Z,58.69
2023-04-22T08:22:01.242Z,60.10
2023-04-22T08:23:01.181Z,60.02
2023-04-22T08:24:01.208Z,60.32
2023-04-22T08:25:01.164Z,61.30
2023-04-22T08:26:01.282Z,59.66
2023-04-22T08:27:01.150Z,59.77
2023-04-22T08:28:01.147Z,60.44
2023-04-22T08:29:01.123Z,59.20
2023-04-22T08:30:01.131Z,58.00
2023-04-22T08:31:01.245Z,57.50
2023-04-22T08:32:01.110Z,58.78
2023-04-22T08:33:01.064Z,57.98
2023-04-22T08:34:01.080Z,58.75
2023-04-22T08:35:04.959Z,56.92
2023-04-22T08:36:01.066Z,56.70
2023-04-22T08:37:01.026Z,55.47
2023-04-22T08:38:01.123Z,55.77
2023-04-22T08:39:00.999Z,55.74
2023-04-22T08:40:00.980Z,53.72
2023-04-22T08:41:00.930Z,53.96
2023-04-22T08:42:00.971Z,52.27
2023-04-22T08:43:00.914Z,53.06
2023-04-22T08:44:00.974Z,53.44
2023-04-22T08:45:00.902Z,52.47
2023-04-22T08:46:00.902Z,54.27
2023-04-22T08:47:02.633Z,53.47
2023-04-22T08:48:00.934Z,52.34
2023-04-22T08:49:00.862Z,53.34
2023-04-22T08:50:00.883Z,52.57
2023-04-22T08:51:00.829Z,52.34
2023-04-22T08:52:00.824Z,52.14
2023-04-22T08:53:00.765Z,53.04
2023-04-22T08:54:00.826Z,53.24
2023-04-22T08:55:00.755Z,53.31
2023-04-22T08:56:00.839Z,52.79
2023-04-22T08:57:00.749Z,52.76
2023-04-22T08:58:00.734Z,52.27
2023-04-22T08:59:00.716Z,52.34
2023-04-22T09:00:00.724Z,53.83
2023-04-22T09:01:00.671Z,51.97
2023-04-22T09:02:00.797Z,50.90
2023-04-22T09:03:00.760Z,52.39
2023-04-22T09:04:00.768Z,51.32
2023-04-22T09:05:00.650Z,52.62
2023-04-22T09:06:00.629Z,54.14
2023-04-22T09:07:00.617Z,52.97
2023-04-22T09:08:00.724Z,52.34
2023-04-22T09:09:00.614Z,53.94
2023-04-22T09:10:00.559Z,50.74
2023-04-22T09:11:00.598Z,53.14
2023-04-22T09:12:00.516Z,52.74
2023-04-22T09:13:00.528Z,52.67
2023-04-22T09:14:00.579Z,54.14
2023-04-22T09:15:00.515Z,53.49
2023-04-22T09:16:00.539Z,52.27
2023-04-22T09:17:00.501Z,52.44
2023-04-22T09:18:00.504Z,49.43
2023-04-22T09:19:00.467Z,49.55
2023-04-22T09:20:00.472Z,48.88
2023-04-22T09:21:00.452Z,50.18
2023-04-22T09:22:00.392Z,48.86
2023-04-22T09:23:00.422Z,50.45
2023-04-22T09:24:00.371Z,49.31
2023-04-22T09:25:00.381Z,50.50
2023-04-22T09:26:00.403Z,46.42
2023-04-22T09:27:00.383Z,48.19
2023-04-22T09:28:00.344Z,48.69
2023-04-22T09:29:00.350Z,48.71
2023-04-22T09:30:00.278Z,48.22
2023-04-22T09:31:00.321Z,48.83
2023-04-22T09:32:00.354Z,51.35
2023-04-22T09:33:00.350Z,48.96
2023-04-22T09:34:00.253Z,48.46
2023-04-22T09:35:00.268Z,48.07
2023-04-22T09:36:00.207Z,49.93
2023-04-22T09:37:00.266Z,49.77
2023-04-22T09:38:00.243Z,50.99
2023-04-22T09:39:00.202Z,51.12
2023-04-22T09:40:00.205Z,51.89
2023-04-22T09:41:00.185Z,51.89
2023-04-22T09:42:00.116Z,53.99
2023-04-22T09:43:00.160Z,54.79
2023-04-22T09:44:00.209Z,54.52
2023-04-22T09:45:01.836Z,53.02
2023-04-22T09:46:00.174Z,54.74
2023-04-22T09:47:00.074Z,53.34
2023-04-22T09:48:00.135Z,53.34
2023-04-22T09:49:00.124Z,54.04
2023-04-22T09:50:00.041Z,54.34
2023-04-22T09:51:00.024Z,54.71
2023-04-22T09:52:00.015Z,53.31
2023-04-22T09:52:59.970Z,53.79
2023-04-22T09:53:59.958Z,52.67
2023-04-22T09:55:00.000Z,51.65
2023-04-22T09:56:00.060Z,51.75
2023-04-22T09:56:59.946Z,51.12
2023-04-22T09:57:59.940Z,49.88
2023-04-22T09:58:59.921Z,48.36
2023-04-22T09:59:59.910Z,49.55
2023-04-22T10:00:59.972Z,48.44
2023-04-22T10:01:59.884Z,49.11
2023-04-22T10:02:59.977Z,49.86
2023-04-22T10:03:59.921Z,49.07
2023-04-22T10:04:59.840Z,47.95
2023-04-22T10:05:59.834Z,48.50
2023-04-22T10:06:59.807Z,46.46
2023-04-22T10:07:59.847Z,47.13
2023-04-22T10:08:59.811Z,49.46
2023-04-22T10:09:59.757Z,49.78
2023-04-22T10:10:59.798Z,49.88
2023-04-22T10:11:59.721Z,48.88
2023-04-22T10:12:59.734Z,49.16
2023-04-22T10:13:59.841Z,50.85
2023-04-22T10:14:59.710Z,49.46
2023-04-22T10:15:59.705Z,50.13
2023-04-22T10:16:59.829Z,46.65
2023-04-22T10:17:59.675Z,47.96
2023-04-22T10:18:59.683Z,48.34
2023-04-22T10:19:59.645Z,48.56
2023-04-22T10:20:59.634Z,49.85
2023-04-22T10:21:59.620Z,49.46
2023-04-22T10:22:59.632Z,50.73
2023-04-22T10:23:59.570Z,49.08
2023-04-22T10:24:59.581Z,47.62
2023-04-22T10:25:59.701Z,47.32
2023-04-22T10:26:59.726Z,47.72
2023-04-22T10:27:59.541Z,49.29
2023-04-22T10:28:59.569Z,48.17
2023-04-22T10:29:59.484Z,47.77
2023-04-22T10:30:59.568Z,47.16
2023-04-22T10:31:59.507Z,47.85
2023-04-22T10:32:59.535Z,45.60
2023-04-22T10:33:59.467Z,44.90
2023-04-22T10:34:59.453Z,44.49
2023-04-22T10:35:59.565Z,45.56
2023-04-22T10:37:02.233Z,45.23
2023-04-22T10:37:59.410Z,44.19
2023-04-22T10:38:59.419Z,44.63
2023-04-22T10:39:59.387Z,47.92
2023-04-22T10:40:59.402Z,46.16
2023-04-22T10:41:59.334Z,44.95
2023-04-22T10:42:59.375Z,44.83
2023-04-22T10:43:59.357Z,45.10
2023-04-22T10:44:59.314Z,47.46
2023-04-22T10:45:59.326Z,44.01
2023-04-22T10:46:59.292Z,43.71
2023-04-22T10:47:59.331Z,44.43
2023-04-22T10:48:59.294Z,46.09
2023-04-22T10:49:59.273Z,45.48
2023-04-22T10:50:59.279Z,44.37
2023-04-22T10:51:59.219Z,46.77
2023-04-22T10:52:59.228Z,44.46
2023-04-22T10:53:59.209Z,42.11
2023-04-22T10:54:59.237Z,43.57
2023-04-22T10:55:59.199Z,44.64
2023-04-22T10:56:59.217Z,44.74
2023-04-22T10:57:59.153Z,44.02
2023-04-22T10:58:59.163Z,43.83
2023-04-22T10:59:59.121Z,44.84
2023-04-22T11:00:59.159Z,43.08
2023-04-22T11:01:59.215Z,44.46
2023-04-22T11:02:59.212Z,44.73
2023-04-22T11:03:59.126Z,46.22
2023-04-22T11:04:59.055Z,46.12
2023-04-22T11:05:59.051Z,47.63
2023-04-22T11:06:59.031Z,48.50
2023-04-22T11:07:59.052Z,46.81
2023-04-22T11:08:59.052Z,46.42
2023-04-22T11:09:58.965Z,48.00
2023-04-22T11:10:59.000Z,46.91
2023-04-22T11:11:58.946Z,47.33
2023-04-22T11:12:58.951Z,46.48
2023-04-22T11:13:59.054Z,46.95
2023-04-22T11:14:58.973Z,46.83
2023-04-22T11:15:58.950Z,48.52
2023-04-22T11:16:58.917Z,48.25
2023-04-22T11:17:58.958Z,46.53
2023-04-22T11:18:58.893Z,48.07
2023-04-22T11:19:58.954Z,49.51
2023-04-22T11:20:58.845Z,50.23
2023-04-22T11:21:58.851Z,51.25
2023-04-22T11:22:58.810Z,49.75
2023-04-22T11:23:58.809Z,50.82
2023-04-22T11:24:58.842Z,50.50
2023-04-22T11:25:58.838Z,50.40
2023-04-22T11:26:58.776Z,51.03
2023-04-22T11:27:58.738Z,51.22
2023-04-22T11:28:58.760Z,49.63
2023-04-22T11:29:58.698Z,50.52
2023-04-22T11:30:58.726Z,51.79
2023-04-22T11:31:58.762Z,51.75
2023-04-22T11:32:58.696Z,48.16
2023-04-22T11:33:58.678Z,47.74
2023-04-22T11:34:58.672Z,47.52
2023-04-22T11:35:58.644Z,46.80
2023-04-22T11:36:58.644Z,47.47
2023-04-22T11:37:58.607Z,47.33
2023-04-22T11:38:58.629Z,48.08
2023-04-22T11:40:58.583Z,46.45
2023-04-22T11:41:58.556Z,46.05
2023-04-22T11:42:58.573Z,47.14
2023-04-22T11:43:58.612Z,45.14
2023-04-22T11:44:58.525Z,45.26
2023-04-22T11:45:58.576Z,45.28
2023-04-22T11:46:58.522Z,45.16
2023-04-22T11:47:58.558Z,44.60
2023-04-22T11:48:58.483Z,46.06
2023-04-22T11:49:58.454Z,43.66
2023-04-22T11:50:58.482Z,43.37
2023-04-22T11:51:58.395Z,42.30
2023-04-22T11:52:58.411Z,43.51
2023-04-22T11:53:58.396Z,45.31
2023-04-22T11:54:58.385Z,44.46
2023-04-22T11:55:58.471Z,44.41
2023-04-22T11:56:58.379Z,46.59
2023-04-22T11:57:58.324Z,46.59
2023-04-22T11:58:58.329Z,47.49
2023-04-22T11:59:58.325Z,45.28
2023-04-22T12:00:58.324Z,44.67
2023-04-22T12:01:58.317Z,44.17
2023-04-22T12:02:58.535Z,43.77
2023-04-22T12:03:58.367Z,43.63
2023-04-22T12:04:58.264Z,43.73
2023-04-22T12:05:58.245Z,45.81
2023-04-22T12:06:58.223Z,46.70
2023-04-22T12:07:58.328Z,44.42
2023-04-22T12:08:58.230Z,45.23
2023-04-22T12:09:58.160Z,47.46
2023-04-22T12:10:58.199Z,49.27
2023-04-22T12:11:58.125Z,48.10
2023-04-22T12:12:58.175Z,46.61
2023-04-22T12:13:58.169Z,46.04
2023-04-22T12:14:58.134Z,47.71
2023-04-22T12:15:58.104Z,44.43
2023-04-22T12:16:58.136Z,45.10
2023-04-22T12:17:58.069Z,45.95
2023-04-22T12:18:58.105Z,44.72
2023-04-22T12:19:58.052Z,45.39
2023-04-22T12:20:58.052Z,42.13
2023-04-22T12:21:58.057Z,42.84
2023-04-22T12:22:58.012Z,43.75
2023-04-22T12:23:58.001Z,44.37
2023-04-22T12:24:58.010Z,43.49
2023-04-22T12:25:58.077Z,45.90
2023-04-22T12:26:57.996Z,43.82
2023-04-22T12:27:58.859Z,44.09
2023-04-22T12:28:58.025Z,43.38
2023-04-22T12:29:57.926Z,42.96
2023-04-22T12:30:57.959Z,43.83
2023-04-22T12:31:57.912Z,44.52
2023-04-22T12:32:57.902Z,42.43
2023-04-22T12:33:57.945Z,44.90
2023-04-22T12:34:57.857Z,42.11
2023-04-22T12:35:57.848Z,43.17
2023-04-22T12:36:57.854Z,43.47
2023-04-22T12:37:57.917Z,42.29
2023-04-22T12:38:57.834Z,43.69
2023-04-22T12:39:57.817Z,45.90
2023-04-22T12:40:57.783Z,43.38
2023-04-22T12:41:57.793Z,44.09
2023-04-22T12:42:57.768Z,44.71
2023-04-22T12:43:57.865Z,45.08
2023-04-22T12:44:57.756Z,44.56
2023-04-22T12:45:57.713Z,43.46
2023-04-22T12:48:21.309Z,42.44
2023-04-22T12:48:26.998Z,41.46
2023-04-22T12:49:26.109Z,41.65
2023-04-22T12:50:26.000Z,44.27
2023-04-22T12:51:26.051Z,45.06
2023-04-22T12:52:25.981Z,42.98
2023-04-22T12:53:25.979Z,42.82
2023-04-22T12:54:25.948Z,44.15